CheckWX is a tool to help pilots better visualize weather data.  It is not intended as a substitute for an official pre-flight weather briefing.

21:08:21 UTC

GMME METAR
Rabat-Salé Airport
Rabat, Morocco
Current

38 mins ago

GMME 182030Z 18004KT 130V210 5000 SCT010 SCT016 11/06 Q1017 NOSIG
Observed
Feb-18 @ 20:30 UTC
Wind
  • 180° at 4 KTS
Visibility
5,005 meters
Flight Rules
MVFR
Cloud Levels
  • Scattered at 1,000' AGL
  • Scattered at 1,600' AGL
Temperature
11°C / 52°F
Dewpoint
C / 43°F
Humidity
72%
Altimeter
30.03" Hg
Pressure
1016.92 hPa
Previous

1 hour ago

GMME 182000Z 19005KT 150V210 5000 SCT010 SCT016 11/06 Q1017 NOSIG
Observed
Feb-18 @ 20:00 UTC
Wind
  • 190° at 5 KTS
Visibility
5,005 meters
Flight Rules
MVFR
Cloud Levels
  • Scattered at 1,000' AGL
  • Scattered at 1,600' AGL
Temperature
11°C / 52°F
Dewpoint
C / 43°F
Humidity
72%
Altimeter
30.03" Hg
Pressure
1016.92 hPa
Previous

2 hours ago

GMME 181930Z 20009KT 5000 SCT010 SCT016 12/07 Q1016 NOSIG
Observed
Feb-18 @ 19:30 UTC
Wind
  • 200° at 9 KTS
Visibility
5,005 meters
Flight Rules
MVFR
Cloud Levels
  • Scattered at 1,000' AGL
  • Scattered at 1,600' AGL
Temperature
12°C / 54°F
Dewpoint
C / 45°F
Humidity
72%
Altimeter
30" Hg
Pressure
1015.92 hPa